Time;durP1;ratioP1;P1;durP2;ratioP2;P2;SDS_P1;SDS_P2;PMS_P1;PMS_P2;Temp;Humidity;BMP_temperature;BMP_pressure;BME280_temperature;BME280_humidity;BME280_pressure;Samples;Min_cycle;Max_cycle;Signal;HPM_P1;HPM_P2
2020/12/14 05:00:20;;;;;;;9.47;7.97;;;3.60;99.90;;;;;;6054138;23;20622;-63
2020/12/14 05:02:54;;;;;;;13.67;10.00;;;3.70;99.90;;;;;;4996496;28;20470;-65
2020/12/14 05:05:21;;;;;;;11.07;9.13;;;3.60;99.90;;;;;;4996217;28;20520;-65
2020/12/14 05:07:47;;;;;;;10.03;9.03;;;3.70;99.90;;;;;;4996208;28;20450;-63
2020/12/14 05:10:14;;;;;;;13.00;8.60;;;3.60;99.90;;;;;;4996278;28;20458;-64
2020/12/14 05:12:41;;;;;;;10.40;9.17;;;3.60;99.90;;;;;;4995633;28;20461;-63
2020/12/14 05:15:23;;;;;;;12.13;10.30;;;3.50;99.90;;;;;;4995754;28;20967;-64
2020/12/14 05:17:50;;;;;;;10.27;9.30;;;3.50;99.90;;;;;;4996290;28;20955;-64
2020/12/14 05:20:18;;;;;;;11.00;9.40;;;3.50;99.90;;;;;;4996049;28;20449;-65
2020/12/14 05:23:00;;;;;;;10.37;8.97;;;3.40;99.90;;;;;;4995992;28;20454;-64
2020/12/14 05:25:27;;;;;;;10.87;9.77;;;3.40;99.90;;;;;;4996002;28;20468;-64
2020/12/14 05:28:05;;;;;;;11.90;9.10;;;3.30;99.90;;;;;;4997002;28;20456;-63
2020/12/14 05:30:41;;;;;;;11.50;10.37;;;3.30;99.90;;;;;;4995804;28;20473;-63
2020/12/14 05:33:07;;;;;;;10.87;9.63;;;3.30;99.90;;;;;;4996156;28;20444;-64
2020/12/14 05:35:35;;;;;;;14.00;10.70;;;3.20;99.90;;;;;;4996316;28;20514;-63
2020/12/14 05:38:16;;;;;;;10.53;9.10;;;3.30;99.90;;;;;;4996690;28;20522;-65
2020/12/14 05:40:43;;;;;;;11.07;9.97;;;3.20;99.90;;;;;;5008218;28;20569;-66
2020/12/14 05:43:11;;;;;;;11.07;9.87;;;3.20;99.90;;;;;;5018622;28;20438;-63
2020/12/14 05:45:39;;;;;;;12.97;10.73;;;3.20;99.90;;;;;;5019106;28;20489;-66
2020/12/14 05:48:25;;;;;;;13.63;9.73;;;3.20;99.90;;;;;;5019032;28;20434;-65
2020/12/14 05:50:53;;;;;;;10.93;9.80;;;3.10;99.90;;;;;;5003216;28;20496;-63
2020/12/14 05:53:20;;;;;;;12.70;10.37;;;3.10;99.90;;;;;;4999496;28;20445;-65
2020/12/14 05:55:47;;;;;;;10.47;8.53;;;3.00;99.90;;;;;;4997120;28;20477;-64
2020/12/14 05:58:14;;;;;;;9.97;8.97;;;3.00;99.90;;;;;;4997895;28;20460;-64
2020/12/14 06:00:43;;;;;;;10.87;9.37;;;3.00;99.90;;;;;;4996256;28;20544;-64
2020/12/14 06:03:10;;;;;;;10.00;8.97;;;3.00;99.90;;;;;;4996807;28;20462;-65
2020/12/14 06:05:37;;;;;;;9.37;8.40;;;3.10;99.90;;;;;;4995943;28;21073;-65
2020/12/14 06:08:16;;;;;;;9.83;8.17;;;3.10;99.90;;;;;;4996542;28;20460;-65
2020/12/14 06:10:49;;;;;;;12.27;9.20;;;3.10;99.90;;;;;;5001900;28;20469;-64
2020/12/14 06:13:21;;;;;;;8.80;7.97;;;3.10;99.90;;;;;;5017783;28;20434;-64
2020/12/14 06:15:50;;;;;;;8.70;7.80;;;3.00;99.90;;;;;;5016941;28;20430;-63
2020/12/14 06:18:21;;;;;;;9.70;8.70;;;3.00;99.90;;;;;;5015314;28;20474;-64
2020/12/14 06:20:48;;;;;;;9.80;8.80;;;3.00;99.90;;;;;;5012831;28;20505;-64
2020/12/14 06:23:16;;;;;;;11.13;8.90;;;3.00;99.90;;;;;;4995869;28;20496;-64
2020/12/14 06:25:43;;;;;;;11.00;9.30;;;3.10;99.90;;;;;;4994806;28;20477;-63
2020/12/14 06:28:27;;;;;;;11.83;9.60;;;3.10;99.90;;;;;;4994541;28;20458;-63
2020/12/14 06:30:54;;;;;;;11.73;8.90;;;3.10;99.90;;;;;;4994432;28;20481;-63
2020/12/14 06:33:33;;;;;;;11.27;9.40;;;3.10;99.90;;;;;;4994842;28;20458;-63
2020/12/14 06:36:15;;;;;;;10.10;8.80;;;3.00;99.90;;;;;;4995760;28;20441;-64
2020/12/14 06:38:42;;;;;;;11.60;9.50;;;3.00;99.90;;;;;;4995428;28;20430;-63
2020/12/14 06:41:13;;;;;;;9.93;8.50;;;2.90;99.90;;;;;;4995323;28;20466;-63
2020/12/14 06:43:40;;;;;;;10.80;9.30;;;2.90;99.90;;;;;;4995426;28;20454;-64
2020/12/14 06:46:07;;;;;;;9.43;8.40;;;2.80;99.90;;;;;;4995245;28;20540;-63
2020/12/14 06:48:42;;;;;;;10.73;9.10;;;2.80;99.90;;;;;;4994667;28;20991;-64
2020/12/14 06:51:10;;;;;;;11.37;9.50;;;2.80;99.90;;;;;;4995566;28;20485;-63
2020/12/14 06:53:42;;;;;;;12.90;9.60;;;2.80;99.90;;;;;;4995258;28;20449;-64
2020/12/14 06:56:09;;;;;;;13.50;9.57;;;2.90;99.90;;;;;;4995213;28;20450;-63
2020/12/14 06:58:39;;;;;;;9.93;8.93;;;2.90;99.90;;;;;;4995701;28;20453;-62
2020/12/14 07:01:32;;;;;;;9.60;8.00;;;2.90;99.90;;;;;;4997435;28;20492;-63
2020/12/14 07:03:58;;;;;;;10.67;9.57;;;2.90;99.90;;;;;;4995054;28;20482;-64
2020/12/14 07:06:28;;;;;;;11.43;8.80;;;2.90;99.90;;;;;;4993896;28;20850;-64
2020/12/14 07:08:55;;;;;;;9.63;8.63;;;3.00;99.90;;;;;;4997123;28;20453;-63
2020/12/14 07:11:23;;;;;;;10.57;7.90;;;3.00;99.90;;;;;;4996936;28;20988;-63
2020/12/14 07:13:50;;;;;;;9.43;8.13;;;3.00;99.90;;;;;;4997382;28;20457;-63
2020/12/14 07:16:19;;;;;;;9.97;8.63;;;3.00;99.90;;;;;;4997025;28;20952;-64
2020/12/14 07:18:48;;;;;;;9.13;7.97;;;3.00;99.90;;;;;;4997480;28;20497;-61
2020/12/14 07:21:15;;;;;;;9.03;8.13;;;3.00;99.90;;;;;;4997469;28;20512;-64
2020/12/14 07:23:43;;;;;;;9.83;8.60;;;3.00;99.90;;;;;;4998485;28;20476;-63
2020/12/14 07:26:11;;;;;;;10.90;8.90;;;2.90;99.90;;;;;;4998830;28;20500;-63
2020/12/14 07:28:39;;;;;;;10.73;9.37;;;3.00;99.90;;;;;;4997938;28;20968;-63
2020/12/14 07:31:13;;;;;;;9.63;8.63;;;3.00;99.90;;;;;;4997765;28;20473;-63
2020/12/14 07:33:48;;;;;;;9.13;8.33;;;3.10;99.90;;;;;;4997090;28;20438;-62
2020/12/14 07:36:15;;;;;;;7.70;7.00;;;3.10;99.90;;;;;;4996793;28;20437;-64
2020/12/14 07:38:46;;;;;;;9.87;8.37;;;3.20;99.90;;;;;;4996840;28;20564;-64
2020/12/14 07:41:13;;;;;;;9.07;7.63;;;3.30;99.90;;;;;;4996526;28;20465;-63
2020/12/14 07:43:47;;;;;;;8.67;7.87;;;3.50;99.90;;;;;;4996705;28;20454;-62
2020/12/14 07:46:25;;;;;;;7.37;6.67;;;4.10;99.90;;;;;;4996435;28;20457;-64
2020/12/14 07:48:52;;;;;;;7.60;7.00;;;5.00;99.90;;;;;;4996681;28;20433;-63
2020/12/14 07:51:19;;;;;;;6.83;6.23;;;5.80;99.90;;;;;;4996564;28;20474;-63
2020/12/14 07:53:46;;;;;;;6.93;6.33;;;6.50;99.90;;;;;;4996600;28;20477;-63
2020/12/14 07:56:12;;;;;;;6.97;6.37;;;7.20;99.90;;;;;;4996421;28;20457;-63
2020/12/14 07:58:44;;;;;;;6.47;5.40;;;7.80;99.90;;;;;;4996757;28;20450;-63
2020/12/14 08:01:15;;;;;;;6.70;6.10;;;8.30;99.90;;;;;;4996118;28;20477;-64
2020/12/14 08:03:41;;;;;;;6.77;6.27;;;8.80;99.90;;;;;;4996407;28;20450;-63
2020/12/14 08:06:12;;;;;;;6.80;6.10;;;9.40;99.90;;;;;;4995755;28;20988;-63
2020/12/14 08:08:41;;;;;;;7.73;6.73;;;10.00;99.90;;;;;;4996278;28;20454;-64
2020/12/14 08:11:07;;;;;;;7.10;6.50;;;10.60;99.90;;;;;;4995959;28;20529;-63
2020/12/14 08:13:34;;;;;;;7.43;6.73;;;11.10;99.90;;;;;;4996408;28;20445;-64
2020/12/14 08:16:02;;;;;;;6.67;6.03;;;11.50;99.90;;;;;;4996436;28;20446;-64
2020/12/14 08:18:29;;;;;;;6.50;5.90;;;11.80;99.90;;;;;;4996049;28;20854;-63
2020/12/14 08:20:56;;;;;;;7.07;6.40;;;12.20;99.90;;;;;;4995695;28;20985;-63
2020/12/14 08:23:23;;;;;;;6.90;6.30;;;12.50;99.90;;;;;;4995995;28;20456;-64
2020/12/14 08:25:52;;;;;;;6.50;6.00;;;12.80;99.90;;;;;;4995679;28;20528;-64
2020/12/14 08:28:27;;;;;;;7.97;7.27;;;13.10;99.90;;;;;;4995906;28;20458;-64
2020/12/14 08:30:54;;;;;;;7.37;6.67;;;13.30;99.90;;;;;;4996209;28;20838;-62
2020/12/14 08:33:20;;;;;;;7.33;6.73;;;13.40;99.90;;;;;;4995832;28;20457;-64
2020/12/14 08:35:48;;;;;;;6.37;5.87;;;13.80;99.90;;;;;;4997516;28;20500;-63
2020/12/14 08:38:16;;;;;;;7.93;7.23;;;14.10;99.90;;;;;;5000591;28;20457;-65
2020/12/14 08:40:52;;;;;;;6.97;6.43;;;14.50;99.90;;;;;;4996682;28;20469;-64
2020/12/14 08:43:20;;;;;;;6.00;5.60;;;14.90;99.90;;;;;;4996622;28;20434;-64
2020/12/14 08:45:57;;;;;;;7.00;6.40;;;14.70;99.00;;;;;;4995625;28;20995;-63
2020/12/14 08:48:24;;;;;;;7.40;6.03;;;14.30;98.90;;;;;;4997248;28;20452;-62
2020/12/14 08:50:50;;;;;;;6.87;6.30;;;14.20;99.50;;;;;;4996299;28;20473;-63
2020/12/14 08:53:23;;;;;;;7.40;6.47;;;14.30;98.80;;;;;;4995327;28;20549;-63
2020/12/14 08:55:50;;;;;;;6.90;6.20;;;14.50;98.90;;;;;;4995241;28;20533;-64
2020/12/14 08:58:16;;;;;;;6.43;5.80;;;14.30;98.00;;;;;;4994818;28;20940;-64
2020/12/14 09:00:43;;;;;;;8.73;6.90;;;14.00;98.80;;;;;;4995274;28;20478;-64
2020/12/14 09:03:09;;;;;;;7.70;6.30;;;13.80;99.00;;;;;;4995066;28;20438;-63
2020/12/14 09:05:36;;;;;;;6.10;5.50;;;13.10;99.90;;;;;;4994716;28;20995;-64
2020/12/14 09:08:15;;;;;;;7.17;6.57;;;12.10;99.90;;;;;;4995053;28;20449;-63
2020/12/14 09:10:42;;;;;;;8.30;6.80;;;10.80;99.90;;;;;;4995171;28;20476;-64
2020/12/14 09:13:09;;;;;;;7.93;7.20;;;10.00;99.90;;;;;;4994926;28;20454;-63
2020/12/14 09:15:36;;;;;;;7.90;6.30;;;9.30;99.90;;;;;;4995434;28;20549;-64
2020/12/14 09:18:03;;;;;;;7.73;7.03;;;8.80;99.90;;;;;;4995228;28;20460;-64
2020/12/14 09:20:30;;;;;;;7.50;6.80;;;8.20;99.90;;;;;;4994919;28;20457;-63
2020/12/14 09:22:56;;;;;;;8.53;7.50;;;7.90;99.90;;;;;;4994873;28;20505;-63
2020/12/14 09:25:22;;;;;;;8.30;7.40;;;7.60;99.90;;;;;;4994931;28;20497;-64
2020/12/14 09:27:49;;;;;;;7.97;6.90;;;7.30;99.90;;;;;;4994809;28;20814;-64
2020/12/14 09:30:16;;;;;;;9.80;8.70;;;7.20;99.90;;;;;;4994086;28;20801;-63
2020/12/14 09:32:42;;;;;;;9.90;8.00;;;7.20;99.90;;;;;;4994985;28;20454;-64
2020/12/14 09:35:08;;;;;;;8.50;7.63;;;7.00;99.90;;;;;;4994940;28;20452;-64
2020/12/14 09:37:34;;;;;;;9.37;8.00;;;7.00;99.90;;;;;;4994853;28;20445;-63
2020/12/14 09:40:02;;;;;;;8.40;7.60;;;7.10;99.90;;;;;;4994780;28;20457;-64
2020/12/14 09:42:28;;;;;;;9.93;8.83;;;7.30;99.90;;;;;;4994851;28;20560;-63
2020/12/14 09:44:54;;;;;;;11.33;7.97;;;7.40;99.90;;;;;;4994759;28;20453;-64
2020/12/14 09:47:21;;;;;;;9.40;7.60;;;7.40;99.90;;;;;;4994441;28;20959;-64
2020/12/14 09:49:47;;;;;;;8.83;7.93;;;7.50;99.90;;;;;;4994866;28;20458;-64
2020/12/14 09:52:14;;;;;;;9.30;7.27;;;7.60;99.90;;;;;;4994821;28;20470;-62
2020/12/14 09:54:40;;;;;;;9.00;7.90;;;7.80;99.90;;;;;;4995158;28;20461;-63
2020/12/14 09:57:06;;;;;;;8.10;7.30;;;7.90;99.90;;;;;;4994685;28;20449;-62
2020/12/14 09:59:32;;;;;;;8.23;7.53;;;7.90;99.90;;;;;;4994763;28;20461;-63
2020/12/14 10:01:59;;;;;;;7.40;6.80;;;8.00;99.90;;;;;;4994050;28;20509;-63
2020/12/14 10:04:26;;;;;;;9.17;8.27;;;8.20;99.90;;;;;;4994526;28;20456;-63
2020/12/14 10:06:52;;;;;;;8.33;7.63;;;8.30;99.90;;;;;;4994755;28;20480;-63
2020/12/14 10:09:18;;;;;;;7.87;7.17;;;8.40;99.90;;;;;;4994961;28;20538;-63
2020/12/14 10:11:44;;;;;;;7.60;6.90;;;8.70;99.90;;;;;;4994087;28;21007;-64
2020/12/14 10:14:10;;;;;;;8.97;7.20;;;8.80;99.90;;;;;;4994812;28;20445;-63
2020/12/14 10:16:37;;;;;;;7.37;6.77;;;8.90;99.90;;;;;;4994513;28;20446;-63
2020/12/14 10:19:04;;;;;;;7.30;6.60;;;9.00;99.90;;;;;;4994957;28;20450;-63
2020/12/14 10:21:31;;;;;;;7.13;6.53;;;8.80;99.90;;;;;;4994612;28;21010;-63
2020/12/14 10:23:57;;;;;;;7.73;7.00;;;8.80;99.90;;;;;;4994494;28;20457;-64
2020/12/14 10:26:24;;;;;;;7.53;6.90;;;8.70;99.90;;;;;;4994331;28;20478;-62
2020/12/14 10:28:51;;;;;;;7.17;6.57;;;8.70;99.90;;;;;;4994306;28;20932;-64
2020/12/14 10:31:17;;;;;;;8.23;7.17;;;8.70;99.90;;;;;;4994414;28;20496;-63
2020/12/14 10:33:46;;;;;;;7.77;7.10;;;8.60;99.90;;;;;;4994603;28;20449;-63
2020/12/14 10:36:15;;;;;;;7.70;7.03;;;8.60;99.90;;;;;;4994337;28;20445;-62
2020/12/14 10:38:42;;;;;;;6.97;6.30;;;8.60;99.90;;;;;;4994321;28;20504;-63
2020/12/14 10:41:08;;;;;;;7.90;7.10;;;8.70;99.90;;;;;;4994273;28;20473;-63
2020/12/14 10:43:34;;;;;;;6.93;6.33;;;8.50;99.90;;;;;;4997898;28;20465;-63
2020/12/14 10:46:00;;;;;;;7.50;6.80;;;8.40;99.90;;;;;;4997914;28;20473;-63
2020/12/14 10:48:26;;;;;;;6.00;5.50;;;8.50;99.90;;;;;;4997862;28;20823;-63
2020/12/14 10:50:53;;;;;;;7.27;6.50;;;8.50;99.90;;;;;;4997738;28;20470;-62
2020/12/14 10:53:19;;;;;;;6.63;6.03;;;8.60;99.90;;;;;;4997897;28;20460;-63
2020/12/14 10:55:48;;;;;;;6.93;6.23;;;8.50;99.90;;;;;;5000008;28;20446;-63
2020/12/14 10:58:15;;;;;;;7.57;6.27;;;8.60;99.90;;;;;;4998170;28;20462;-63
2020/12/14 11:00:41;;;;;;;7.03;6.33;;;8.50;99.90;;;;;;4997377;28;20984;-63
2020/12/14 11:03:07;;;;;;;7.00;6.40;;;8.50;99.90;;;;;;5001137;28;20442;-64
2020/12/14 11:05:34;;;;;;;6.57;6.00;;;8.50;99.90;;;;;;5021507;28;20485;-62
2020/12/14 11:08:00;;;;;;;6.60;6.07;;;8.40;99.90;;;;;;5021182;28;20448;-64
2020/12/14 11:10:26;;;;;;;6.60;6.00;;;8.30;99.90;;;;;;5021358;28;20446;-63
2020/12/14 11:12:53;;;;;;;6.33;5.83;;;8.20;99.90;;;;;;5008004;28;20509;-62
2020/12/14 11:15:19;;;;;;;6.30;5.70;;;8.10;99.90;;;;;;4999143;28;20553;-63
2020/12/14 11:17:45;;;;;;;7.77;6.53;;;8.10;99.90;;;;;;4998948;28;20488;-64
2020/12/14 11:20:12;;;;;;;7.30;5.67;;;8.10;99.90;;;;;;4997437;28;20524;-63
2020/12/14 11:22:39;;;;;;;6.77;5.97;;;8.10;99.90;;;;;;4997721;28;20481;-64
2020/12/14 11:25:06;;;;;;;6.67;6.07;;;8.20;99.90;;;;;;4997052;28;20476;-64
2020/12/14 11:27:32;;;;;;;9.70;6.60;;;8.30;99.90;;;;;;4997349;28;20458;-63
2020/12/14 11:29:59;;;;;;;6.90;6.20;;;8.30;99.90;;;;;;4997164;28;20460;-63
2020/12/14 11:32:27;;;;;;;6.90;6.20;;;8.40;99.90;;;;;;5035397;23;20477;-62
2020/12/14 11:34:53;;;;;;;7.17;6.30;;;8.50;99.90;;;;;;4996750;28;20543;-62
2020/12/14 11:37:19;;;;;;;6.57;5.87;;;8.60;99.90;;;;;;4996498;28;20933;-62
2020/12/14 11:39:46;;;;;;;6.30;5.80;;;8.70;99.90;;;;;;4996758;28;20454;-62
2020/12/14 11:42:12;;;;;;;7.03;6.27;;;8.80;99.90;;;;;;4996703;28;20855;-62
2020/12/14 11:44:38;;;;;;;6.00;5.40;;;8.80;99.90;;;;;;4997045;28;20454;-62
2020/12/14 11:47:06;;;;;;;6.17;5.40;;;8.70;99.90;;;;;;4996404;28;20489;-62
2020/12/14 11:49:32;;;;;;;6.30;5.70;;;8.60;99.90;;;;;;4996448;28;20449;-61
2020/12/14 11:51:58;;;;;;;6.67;6.07;;;8.50;99.90;;;;;;4996163;28;20453;-62
2020/12/14 11:54:24;;;;;;;7.00;6.30;;;8.60;99.90;;;;;;4995926;28;20470;-60
2020/12/14 11:56:51;;;;;;;6.50;6.00;;;8.70;99.90;;;;;;4996222;28;20450;-62
2020/12/14 11:59:18;;;;;;;7.30;6.60;;;8.70;99.90;;;;;;4996080;28;20457;-61
2020/12/14 12:01:44;;;;;;;9.43;6.37;;;8.70;99.90;;;;;;4996079;28;20453;-61
2020/12/14 12:04:11;;;;;;;7.60;6.80;;;8.80;99.90;;;;;;4997377;28;20469;-61
2020/12/14 12:06:37;;;;;;;7.40;6.70;;;8.80;99.90;;;;;;4996076;28;20484;-61
2020/12/14 12:09:04;;;;;;;8.07;6.70;;;8.80;99.90;;;;;;4996058;28;20465;-60
2020/12/14 12:11:33;;;;;;;17.13;6.53;;;8.90;99.90;;;;;;4995925;28;20560;-60
2020/12/14 12:13:59;;;;;;;9.93;7.20;;;8.90;99.90;;;;;;4995707;28;20485;-63
2020/12/14 12:16:25;;;;;;;7.00;6.40;;;8.90;99.90;;;;;;4995713;28;20843;-62
2020/12/14 12:18:51;;;;;;;7.53;6.83;;;9.10;99.90;;;;;;4995769;28;20511;-62
2020/12/14 12:21:18;;;;;;;7.07;5.83;;;9.20;99.90;;;;;;4995736;28;20465;-62
2020/12/14 12:23:44;;;;;;;9.43;6.40;;;9.20;99.90;;;;;;4995202;28;20474;-62
2020/12/14 12:26:11;;;;;;;7.40;6.80;;;9.20;99.90;;;;;;4995534;28;20474;-62
2020/12/14 12:28:37;;;;;;;6.73;6.13;;;9.20;99.90;;;;;;4995463;28;20500;-62
2020/12/14 12:31:03;;;;;;;6.53;5.53;;;9.10;99.90;;;;;;4995304;28;20544;-62
2020/12/14 12:33:30;;;;;;;7.37;6.83;;;9.10;99.90;;;;;;4994989;28;20489;-62
2020/12/14 12:35:56;;;;;;;6.43;5.70;;;9.20;99.90;;;;;;4996341;28;20449;-62
2020/12/14 12:38:23;;;;;;;7.10;6.50;;;9.20;99.90;;;;;;4995275;28;20461;-62
2020/12/14 12:40:49;;;;;;;7.10;6.40;;;9.30;99.90;;;;;;4995513;28;20453;-62
2020/12/14 12:43:15;;;;;;;7.20;6.60;;;9.40;99.90;;;;;;4995215;28;20520;-62
2020/12/14 12:45:42;;;;;;;11.03;6.57;;;9.40;99.90;;;;;;4995533;28;20482;-62
2020/12/14 12:48:08;;;;;;;6.73;6.20;;;9.40;99.90;;;;;;4995236;28;20449;-62
2020/12/14 12:50:35;;;;;;;8.00;7.23;;;9.30;99.90;;;;;;4995074;28;21056;-62
2020/12/14 12:53:02;;;;;;;6.93;6.13;;;9.20;99.90;;;;;;4995127;28;20477;-62
2020/12/14 12:55:29;;;;;;;8.80;6.83;;;9.20;99.90;;;;;;4995411;28;20450;-62
2020/12/14 12:57:55;;;;;;;7.73;7.13;;;9.30;99.90;;;;;;4994748;28;20991;-62
2020/12/14 13:00:21;;;;;;;8.30;7.50;;;9.30;99.90;;;;;;4994954;28;20458;-62
2020/12/14 13:02:47;;;;;;;7.67;6.97;;;9.40;99.90;;;;;;4994990;28;20876;-62
2020/12/14 13:05:13;;;;;;;8.43;7.00;;;9.60;99.90;;;;;;4994308;28;20453;-62
2020/12/14 13:07:40;;;;;;;6.60;6.00;;;9.70;99.90;;;;;;4995007;28;20816;-62
2020/12/14 13:10:06;;;;;;;6.87;6.33;;;9.70;99.90;;;;;;4994965;28;20461;-62
2020/12/14 13:12:33;;;;;;;6.40;5.80;;;9.70;99.90;;;;;;4994756;28;20482;-62
2020/12/14 13:14:59;;;;;;;6.17;5.67;;;9.70;99.90;;;;;;4994517;28;20995;-62
2020/12/14 13:17:25;;;;;;;7.67;6.23;;;9.60;99.90;;;;;;4994972;28;20453;-62
2020/12/14 13:19:51;;;;;;;7.27;6.67;;;9.60;99.90;;;;;;4994812;28;20453;-62
2020/12/14 13:22:17;;;;;;;8.00;6.93;;;9.70;99.90;;;;;;4994601;28;20450;-62
2020/12/14 13:24:44;;;;;;;8.20;6.00;;;9.80;99.90;;;;;;4994436;28;20469;-62
2020/12/14 13:27:10;;;;;;;7.10;6.50;;;9.80;99.90;;;;;;4994526;28;20462;-62
2020/12/14 13:29:37;;;;;;;7.13;6.50;;;9.80;99.90;;;;;;4994211;28;20438;-62
2020/12/14 13:32:03;;;;;;;7.97;7.23;;;9.90;99.90;;;;;;4994387;28;20461;-61
2020/12/14 13:34:29;;;;;;;9.00;6.13;;;9.90;99.90;;;;;;4994666;28;20545;-61
2020/12/14 13:36:57;;;;;;;8.17;7.43;;;9.90;99.90;;;;;;4994331;28;20477;-61
2020/12/14 13:39:23;;;;;;;7.10;5.67;;;9.90;99.90;;;;;;4994413;28;20464;-61
2020/12/14 13:41:49;;;;;;;7.47;6.60;;;9.90;99.90;;;;;;4994179;28;20450;-61
2020/12/14 13:44:15;;;;;;;8.40;6.10;;;10.00;99.90;;;;;;4993949;28;20891;-61
2020/12/14 13:46:42;;;;;;;6.57;5.90;;;10.00;99.90;;;;;;4993832;28;20976;-63
2020/12/14 13:49:10;;;;;;;8.23;5.60;;;10.00;99.90;;;;;;4994612;28;20449;-63
2020/12/14 13:51:36;;;;;;;8.33;6.17;;;10.00;99.90;;;;;;4993778;28;20932;-62
2020/12/14 13:54:02;;;;;;;6.23;5.63;;;10.00;99.90;;;;;;4994177;28;20465;-62
2020/12/14 13:56:29;;;;;;;7.20;6.50;;;9.90;99.90;;;;;;4993856;28;20909;-62
2020/12/14 13:58:55;;;;;;;6.63;6.03;;;9.90;99.90;;;;;;4994031;28;20457;-62
2020/12/14 14:01:21;;;;;;;6.87;5.90;;;10.00;99.90;;;;;;4994012;28;20509;-62
2020/12/14 14:03:48;;;;;;;7.47;6.70;;;10.00;99.90;;;;;;4993998;28;20496;-62
2020/12/14 14:06:14;;;;;;;7.53;6.87;;;9.90;99.90;;;;;;4994024;28;20474;-62
2020/12/14 14:08:41;;;;;;;8.20;6.47;;;9.90;99.90;;;;;;4993848;28;20457;-62
2020/12/14 14:11:07;;;;;;;8.77;6.90;;;9.80;99.90;;;;;;4994064;28;20453;-62
2020/12/14 14:13:34;;;;;;;7.37;6.67;;;9.80;99.90;;;;;;4993608;28;20473;-63
2020/12/14 14:16:02;;;;;;;8.30;6.73;;;9.80;99.90;;;;;;4995406;28;20504;-63
2020/12/14 14:18:28;;;;;;;8.20;6.20;;;9.80;99.90;;;;;;4997898;28;20454;-62
2020/12/14 14:20:55;;;;;;;9.73;6.33;;;9.80;99.90;;;;;;4997977;28;20460;-62
2020/12/14 14:23:21;;;;;;;7.00;6.33;;;9.70;99.90;;;;;;4997876;28;20476;-62
2020/12/14 14:25:47;;;;;;;7.07;6.47;;;9.60;99.90;;;;;;4997833;28;20484;-62
2020/12/14 14:28:14;;;;;;;6.90;6.30;;;9.60;99.90;;;;;;4997859;28;20450;-61
2020/12/14 14:30:40;;;;;;;6.53;5.90;;;9.60;99.90;;;;;;4997884;28;20853;-62
2020/12/14 14:33:06;;;;;;;8.50;7.10;;;9.60;99.90;;;;;;4997406;28;20996;-62
2020/12/14 14:35:33;;;;;;;7.00;6.30;;;9.50;99.90;;;;;;4998022;28;20637;-61
2020/12/14 14:38:02;;;;;;;6.83;6.23;;;9.50;99.90;;;;;;4997559;28;20455;-61
2020/12/14 14:40:28;;;;;;;6.13;5.63;;;9.50;99.90;;;;;;4998510;28;20449;-62
2020/12/14 14:42:56;;;;;;;8.43;6.53;;;9.60;99.90;;;;;;4999638;28;20472;-61
2020/12/14 14:45:22;;;;;;;8.07;7.37;;;9.60;99.90;;;;;;5002110;28;20438;-61
2020/12/14 14:47:48;;;;;;;9.23;7.30;;;9.60;99.90;;;;;;5006378;28;20452;-61
2020/12/14 14:50:15;;;;;;;7.93;7.03;;;9.60;99.90;;;;;;5008221;28;20461;-61
2020/12/14 14:52:41;;;;;;;7.30;6.40;;;9.60;99.90;;;;;;5005554;28;20984;-61
2020/12/14 14:55:08;;;;;;;8.40;7.60;;;9.50;99.90;;;;;;5006658;28;20446;-61
2020/12/14 14:57:35;;;;;;;10.40;7.93;;;9.50;99.90;;;;;;5008476;28;20940;-61
2020/12/14 15:00:03;;;;;;;7.43;6.83;;;9.40;99.90;;;;;;5007128;28;20450;-62
2020/12/14 15:02:29;;;;;;;7.30;6.60;;;9.40;99.90;;;;;;5001883;28;20477;-63
2020/12/14 15:04:55;;;;;;;10.60;7.33;;;9.20;99.90;;;;;;4999360;28;20449;-62
2020/12/14 15:07:21;;;;;;;8.07;7.10;;;9.20;99.90;;;;;;4998227;28;20485;-62
2020/12/14 15:09:48;;;;;;;9.70;7.90;;;9.20;99.90;;;;;;4997606;28;20458;-62
2020/12/14 15:12:15;;;;;;;16.60;7.93;;;9.10;99.90;;;;;;4997684;28;20457;-62
2020/12/14 15:14:41;;;;;;;9.00;7.50;;;9.10;99.90;;;;;;4997802;28;20441;-62
2020/12/14 15:17:07;;;;;;;12.70;7.70;;;9.10;99.90;;;;;;4997592;28;20450;-63
2020/12/14 15:19:33;;;;;;;9.27;7.90;;;9.10;99.90;;;;;;4997036;28;20488;-61
2020/12/14 15:22:00;;;;;;;16.17;7.27;;;9.10;99.90;;;;;;4997112;28;20453;-62
2020/12/14 15:24:26;;;;;;;10.70;7.83;;;9.10;99.90;;;;;;4997036;28;20474;-62
2020/12/14 15:26:52;;;;;;;9.90;7.97;;;9.10;99.90;;;;;;4996852;28;20482;-62
2020/12/14 15:29:19;;;;;;;16.73;8.57;;;9.10;99.90;;;;;;4996505;28;20494;-61
2020/12/14 15:31:45;;;;;;;7.97;7.20;;;9.10;99.90;;;;;;4996992;28;20454;-61
2020/12/14 15:34:12;;;;;;;8.93;7.93;;;9.10;99.90;;;;;;4996452;28;20485;-62
2020/12/14 15:36:38;;;;;;;8.07;7.20;;;9.00;99.90;;;;;;4997435;28;20473;-62
2020/12/14 15:39:04;;;;;;;9.53;8.53;;;9.00;99.90;;;;;;4996929;28;20453;-62
2020/12/14 15:41:30;;;;;;;8.40;7.40;;;9.00;99.90;;;;;;4996610;28;20456;-61
2020/12/14 15:43:57;;;;;;;10.73;7.47;;;9.00;99.90;;;;;;4996525;28;20480;-61
2020/12/14 15:46:24;;;;;;;9.13;7.60;;;9.00;99.90;;;;;;4996729;28;20462;-61
2020/12/14 15:48:53;;;;;;;8.63;7.73;;;9.00;99.90;;;;;;4996709;28;20454;-61
2020/12/14 15:51:19;;;;;;;10.97;8.40;;;8.90;99.90;;;;;;4996164;28;20986;-61
2020/12/14 15:53:45;;;;;;;12.30;9.00;;;8.90;99.90;;;;;;4996367;28;20477;-62
2020/12/14 15:56:16;;;;;;;9.63;8.63;;;8.80;99.90;;;;;;4996406;28;20508;-60
2020/12/14 15:58:42;;;;;;;12.73;8.97;;;8.80;99.90;;;;;;4996341;28;20434;-61
2020/12/14 16:01:09;;;;;;;10.40;8.47;;;8.70;99.90;;;;;;4996537;28;20449;-61
2020/12/14 16:03:36;;;;;;;8.90;8.03;;;8.70;99.90;;;;;;4996123;28;20481;-62
2020/12/14 16:06:02;;;;;;;10.50;9.10;;;8.70;99.90;;;;;;4996360;28;20836;-62
2020/12/14 16:08:28;;;;;;;10.23;8.00;;;8.70;99.90;;;;;;4996333;28;20504;-60
2020/12/14 16:10:54;;;;;;;9.77;8.30;;;8.60;99.90;;;;;;4995808;28;20457;-61
2020/12/14 16:13:21;;;;;;;10.30;8.50;;;8.60;99.90;;;;;;4996154;28;20838;-61
2020/12/14 16:15:47;;;;;;;12.10;7.70;;;8.60;99.90;;;;;;4996109;28;20971;-61
2020/12/14 16:18:13;;;;;;;8.47;7.63;;;8.60;99.90;;;;;;4996364;28;20460;-60
2020/12/14 16:20:41;;;;;;;7.80;7.10;;;8.50;99.90;;;;;;4996119;28;20461;-61
2020/12/14 16:23:07;;;;;;;9.33;7.70;;;8.50;99.90;;;;;;4995828;28;20469;-60
2020/12/14 16:25:34;;;;;;;13.23;7.87;;;8.40;99.90;;;;;;4996505;28;20460;-61
2020/12/14 16:28:00;;;;;;;9.53;7.87;;;8.30;99.90;;;;;;4996647;28;20880;-61
2020/12/14 16:30:26;;;;;;;8.00;7.30;;;8.30;99.90;;;;;;4997293;28;20462;-60
2020/12/14 16:32:52;;;;;;;8.00;7.17;;;8.30;99.90;;;;;;4997963;28;20481;-61
2020/12/14 16:35:18;;;;;;;11.43;7.80;;;8.30;99.90;;;;;;5000049;28;20450;-60
2020/12/14 16:37:45;;;;;;;7.83;7.13;;;8.30;99.90;;;;;;4999337;28;20457;-60
2020/12/14 16:40:12;;;;;;;8.33;7.50;;;8.20;99.90;;;;;;4998328;28;20453;-62
2020/12/14 16:42:38;;;;;;;8.27;7.57;;;8.20;99.90;;;;;;4997299;28;20587;-61
2020/12/14 16:45:05;;;;;;;8.57;7.73;;;8.30;99.90;;;;;;4997031;28;20453;-60
2020/12/14 16:47:31;;;;;;;11.10;8.23;;;8.20;99.90;;;;;;4997768;28;20836;-61
2020/12/14 16:49:58;;;;;;;9.77;7.90;;;8.20;99.90;;;;;;4996408;28;20457;-61
2020/12/14 16:52:24;;;;;;;8.90;7.20;;;8.20;99.90;;;;;;4996223;28;20479;-60
2020/12/14 16:54:51;;;;;;;8.10;7.30;;;8.10;99.90;;;;;;4995996;28;20449;-60
2020/12/14 16:57:18;;;;;;;12.97;8.00;;;8.10;99.90;;;;;;4996185;28;20936;-60
2020/12/14 16:59:44;;;;;;;10.87;8.00;;;8.00;99.90;;;;;;4995395;28;20929;-61
2020/12/14 17:02:12;;;;;;;9.93;9.03;;;8.00;99.90;;;;;;4995394;28;20454;-61
2020/12/14 17:04:48;;;;;;;10.57;9.00;;;8.00;99.90;;;;;;4995357;28;20460;-61
2020/12/14 17:07:18;;;;;;;10.37;9.27;;;8.00;99.90;;;;;;4995242;28;20466;-61
2020/12/14 17:09:45;;;;;;;10.63;9.53;;;8.00;99.90;;;;;;4995095;28;20598;-61
2020/12/14 17:12:12;;;;;;;13.07;9.67;;;8.00;99.90;;;;;;4994966;28;20458;-61
2020/12/14 17:14:38;;;;;;;11.73;9.60;;;8.00;99.90;;;;;;4994872;28;20457;-61
2020/12/14 17:17:04;;;;;;;12.60;9.03;;;8.00;99.90;;;;;;4995701;28;20434;-61
2020/12/14 17:19:30;;;;;;;10.40;9.10;;;8.00;99.90;;;;;;4995249;28;20458;-63
2020/12/14 17:21:57;;;;;;;10.80;9.60;;;8.00;99.90;;;;;;4995146;28;20488;-62
2020/12/14 17:24:25;;;;;;;13.70;12.10;;;7.90;99.90;;;;;;4995548;28;20938;-61
2020/12/14 17:26:51;;;;;;;16.33;10.40;;;7.90;99.90;;;;;;4995190;28;20509;-62
2020/12/14 17:29:18;;;;;;;10.23;9.17;;;7.90;99.90;;;;;;4994987;28;20458;-62
2020/12/14 17:31:44;;;;;;;11.07;9.97;;;7.90;99.90;;;;;;4994841;28;20445;-62
2020/12/14 17:34:14;;;;;;;11.20;9.90;;;7.90;99.90;;;;;;4994823;28;20477;-62
2020/12/14 17:36:40;;;;;;;11.77;10.40;;;7.80;99.90;;;;;;4995355;28;20450;-62
2020/12/14 17:39:06;;;;;;;11.00;10.00;;;7.80;99.90;;;;;;4995398;28;20453;-62
2020/12/14 17:41:32;;;;;;;11.97;10.70;;;7.80;99.90;;;;;;4995552;28;20457;-62
2020/12/14 17:43:59;;;;;;;11.07;9.97;;;7.80;99.90;;;;;;4995076;28;20481;-62
2020/12/14 17:46:26;;;;;;;11.90;9.20;;;7.80;99.90;;;;;;4995583;28;20478;-62
2020/12/14 17:48:52;;;;;;;11.30;9.60;;;7.80;99.90;;;;;;5033662;23;20512;-62
2020/12/14 17:51:19;;;;;;;11.30;10.07;;;7.70;99.90;;;;;;4994794;28;20449;-62
2020/12/14 17:53:45;;;;;;;11.27;10.07;;;7.70;99.90;;;;;;4995490;28;20904;-62